アラート の空港の天気 - METARとTAF

Alert Airport ( CYLT / YLT ) - カナダ ヌナブト準州アラート
飛行場実況気象(Metar)
観測時間05/27 16:00 EDT (05/27 20:00 UTC)
風向・風速東 5m/s
視程3200m
天気現象もや
全天を覆う雲 雲底高度 90m
気温-5℃
湿度86%
気圧1019.8hPa
METARCYLT 272000Z 10010KT 2SM BR OVC003 M05/M07 A3011 RMK ST8 VIS VRB 1 1/2-2 1/2 LAST OBS /NEXT 301200 UTC SLP198
過去の天気等 Google飛行場航空写真 Wunderground天気予報

過去48時間のMETAR

飛行場予報(TAF)
データがありません